Starbuck, Minnesota
Current Conditions -  °F | °C
As of 3:53 AM on Saturday 25 Oct 2014 (Local Time) from KGHW Reporting Station
Clear Clear  
Wind Chill: 45°   Ceiling: Unl
Heat Index: 48°   Visibility: 10mi
Dew Point: 36°   Wind: 8mph
Humidity: 62%   Direction: 270°W
Pressure: 30.01"   Gusts: NA
Location:  45.61°N, 95.53°W
Report Text: KGHW 250853Z AUTO 27007KT 10SM CLR 09/02 A3001 RMK AO2
Loading
Personal Weather Stations






























Interactive Weather Map
Tropical Storm Tracking
New forecast layout! Learn more

10-Day Weather Forecast

Advertisements
Track Severe Weather on mobile